AFR29JK LFPG-LFML
Flight info
| Callsign | AFR29JK |
|---|---|
| Flight time | 1h 2m |
| Altitude | 31000 |
| Route | LATRA DCT LAMUT DCT UTUVA DCT LERGA |
| Aircraft | A319/M-SDE3FGHIRWY/LB1 |
Departure
| Time | 2026-05-05 13:16 |
|---|---|
| Airport | Charles de Gaulle International Airport (LFPG) |
Arrival
| Time | 2026-05-05 14:18 |
|---|---|
| Airport | Marseille Provence Airport (LFML) |
| Time | Latitude | Longitude | Altitude | Speed | Heading |
|---|---|---|---|---|---|
| 2026-05-05 12:47 | 49.00716 | 2.58000 | 355 ft | 0 kts | 231° |
| 2026-05-05 13:04 | 49.00717 | 2.58003 | 354 ft | 2 kts | 231° |
| 2026-05-05 13:04 | 49.00732 | 2.58035 | 364 ft | 4 kts | 243° |
| 2026-05-05 13:05 | 49.00741 | 2.58073 | 362 ft | 4 kts | 265° |
| 2026-05-05 13:05 | 49.00738 | 2.58110 | 359 ft | 4 kts | 304° |
| 2026-05-05 13:05 | 49.00721 | 2.58130 | 363 ft | 2 kts | 355° |
| 2026-05-05 13:05 | 49.00720 | 2.58130 | 363 ft | 3 kts | 355° |
| 2026-05-05 13:07 | 49.00726 | 2.58130 | 362 ft | 2 kts | 355° |
| 2026-05-05 13:07 | 49.00753 | 2.58126 | 361 ft | 5 kts | 355° |
| 2026-05-05 13:07 | 49.00800 | 2.58120 | 354 ft | 8 kts | 354° |
| 2026-05-05 13:08 | 49.00856 | 2.58112 | 363 ft | 8 kts | 351° |
| 2026-05-05 13:08 | 49.00901 | 2.58048 | 358 ft | 11 kts | 286° |
| 2026-05-05 13:08 | 49.00898 | 2.57924 | 354 ft | 12 kts | 265° |
| 2026-05-05 13:08 | 49.00891 | 2.57796 | 357 ft | 12 kts | 267° |
| 2026-05-05 13:09 | 49.00885 | 2.57663 | 354 ft | 13 kts | 265° |
| 2026-05-05 13:09 | 49.00877 | 2.57527 | 354 ft | 13 kts | 264° |
| 2026-05-05 13:09 | 49.00869 | 2.57386 | 354 ft | 13 kts | 264° |
| 2026-05-05 13:09 | 49.00860 | 2.57243 | 354 ft | 14 kts | 266° |
| 2026-05-05 13:10 | 49.00853 | 2.57096 | 354 ft | 14 kts | 266° |
| 2026-05-05 13:10 | 49.00845 | 2.56944 | 354 ft | 14 kts | 265° |
| 2026-05-05 13:10 | 49.00837 | 2.56789 | 360 ft | 15 kts | 266° |
| 2026-05-05 13:10 | 49.00828 | 2.56631 | 354 ft | 15 kts | 265° |
| 2026-05-05 13:11 | 49.00818 | 2.56470 | 354 ft | 15 kts | 261° |
| 2026-05-05 13:11 | 49.00803 | 2.56309 | 354 ft | 16 kts | 262° |
| 2026-05-05 13:11 | 49.00787 | 2.56144 | 357 ft | 16 kts | 262° |
| 2026-05-05 13:11 | 49.00772 | 2.55975 | 354 ft | 16 kts | 262° |
| 2026-05-05 13:12 | 49.00755 | 2.55804 | 354 ft | 16 kts | 262° |
| 2026-05-05 13:12 | 49.00741 | 2.55629 | 354 ft | 17 kts | 263° |
| 2026-05-05 13:12 | 49.00727 | 2.55452 | 354 ft | 17 kts | 263° |
| 2026-05-05 13:12 | 49.00693 | 2.55283 | 359 ft | 17 kts | 232° |
| 2026-05-05 13:13 | 49.00584 | 2.55269 | 354 ft | 17 kts | 165° |
| 2026-05-05 13:13 | 49.00473 | 2.55318 | 360 ft | 17 kts | 165° |
| 2026-05-05 13:13 | 49.00361 | 2.55366 | 354 ft | 17 kts | 164° |
| 2026-05-05 13:13 | 49.00249 | 2.55414 | 357 ft | 17 kts | 164° |
| 2026-05-05 13:14 | 49.00137 | 2.55463 | 354 ft | 17 kts | 163° |
| 2026-05-05 13:14 | 49.00024 | 2.55513 | 359 ft | 17 kts | 163° |
| 2026-05-05 13:14 | 48.99913 | 2.55571 | 360 ft | 17 kts | 149° |
| 2026-05-05 13:14 | 48.99839 | 2.55705 | 357 ft | 17 kts | 111° |
| 2026-05-05 13:15 | 48.99761 | 2.55808 | 356 ft | 16 kts | 174° |
| 2026-05-05 13:15 | 48.99651 | 2.55815 | 359 ft | 16 kts | 177° |
| 2026-05-05 13:15 | 48.99606 | 2.55938 | 354 ft | 15 kts | 86° |
| 2026-05-05 13:15 | 48.99617 | 2.56164 | 356 ft | 44 kts | 85° |
| 2026-05-05 13:16 | 48.99664 | 2.57031 | 354 ft | 117 kts | 85° |
| 2026-05-05 13:16 | 48.99747 | 2.58564 | 379 ft | 168 kts | 85° |
| 2026-05-05 13:16 | 48.99866 | 2.60358 | 1003 ft | 172 kts | 79° |
| 2026-05-05 13:16 | 48.99968 | 2.62215 | 1769 ft | 180 kts | 81° |
| 2026-05-05 13:17 | 49.00053 | 2.64150 | 2457 ft | 190 kts | 84° |
| 2026-05-05 13:17 | 49.00160 | 2.66281 | 2890 ft | 214 kts | 84° |
| 2026-05-05 13:17 | 49.00284 | 2.68673 | 3517 ft | 239 kts | 84° |
| 2026-05-05 13:17 | 49.00421 | 2.71272 | 4399 ft | 252 kts | 84° |
| 2026-05-05 13:18 | 49.00559 | 2.73961 | 5394 ft | 257 kts | 84° |
| 2026-05-05 13:18 | 49.00697 | 2.76693 | 6368 ft | 261 kts | 85° |
| 2026-05-05 13:18 | 49.00570 | 2.79471 | 7206 ft | 267 kts | 103° |
| 2026-05-05 13:18 | 48.99723 | 2.82014 | 8043 ft | 276 kts | 128° |
| 2026-05-05 13:19 | 48.98167 | 2.83769 | 8910 ft | 286 kts | 156° |
| 2026-05-05 13:19 | 48.96181 | 2.84211 | 9781 ft | 296 kts | 185° |
| 2026-05-05 13:19 | 48.94227 | 2.83141 | 10444 ft | 310 kts | 208° |
| 2026-05-05 13:19 | 48.92338 | 2.81364 | 10782 ft | 331 kts | 212° |
| 2026-05-05 13:20 | 48.90383 | 2.79400 | 11494 ft | 338 kts | 212° |
| 2026-05-05 13:20 | 48.88426 | 2.77391 | 12396 ft | 342 kts | 212° |
| 2026-05-05 13:20 | 48.86444 | 2.75357 | 13269 ft | 345 kts | 212° |
| 2026-05-05 13:20 | 48.84437 | 2.73319 | 14085 ft | 349 kts | 212° |
| 2026-05-05 13:21 | 48.82404 | 2.71277 | 14859 ft | 352 kts | 211° |
| 2026-05-05 13:21 | 48.80348 | 2.69231 | 15605 ft | 355 kts | 211° |
| 2026-05-05 13:21 | 48.78267 | 2.67176 | 16350 ft | 358 kts | 211° |
| 2026-05-05 13:21 | 48.76169 | 2.65109 | 17099 ft | 362 kts | 211° |
| 2026-05-05 13:22 | 48.74075 | 2.63048 | 17823 ft | 365 kts | 211° |
| 2026-05-05 13:22 | 48.71917 | 2.60923 | 18512 ft | 368 kts | 210° |
| 2026-05-05 13:22 | 48.69763 | 2.58800 | 19160 ft | 371 kts | 210° |
| 2026-05-05 13:22 | 48.67589 | 2.56659 | 19776 ft | 374 kts | 211° |
| 2026-05-05 13:23 | 48.65438 | 2.54541 | 20356 ft | 376 kts | 211° |
| 2026-05-05 13:23 | 48.63238 | 2.52375 | 20966 ft | 379 kts | 211° |
| 2026-05-05 13:23 | 48.60995 | 2.50165 | 21583 ft | 382 kts | 211° |
| 2026-05-05 13:23 | 48.58755 | 2.47960 | 22153 ft | 385 kts | 211° |
| 2026-05-05 13:24 | 48.56534 | 2.45778 | 22717 ft | 388 kts | 211° |
| 2026-05-05 13:24 | 48.54276 | 2.43566 | 23288 ft | 391 kts | 211° |
| 2026-05-05 13:24 | 48.51903 | 2.41533 | 23777 ft | 392 kts | 202° |
| 2026-05-05 13:24 | 48.49327 | 2.40199 | 24220 ft | 392 kts | 192° |
| 2026-05-05 13:25 | 48.46630 | 2.39609 | 24683 ft | 393 kts | 181° |
| 2026-05-05 13:25 | 48.43897 | 2.39705 | 25138 ft | 395 kts | 175° |
| 2026-05-05 13:25 | 48.41139 | 2.39928 | 25610 ft | 397 kts | 175° |
| 2026-05-05 13:25 | 48.38359 | 2.40146 | 26051 ft | 401 kts | 175° |
| 2026-05-05 13:26 | 48.35568 | 2.40362 | 26486 ft | 404 kts | 175° |
| 2026-05-05 13:26 | 48.32762 | 2.40577 | 26930 ft | 406 kts | 175° |
| 2026-05-05 13:26 | 48.29931 | 2.40858 | 27360 ft | 408 kts | 171° |
| 2026-05-05 13:26 | 48.27151 | 2.41711 | 27785 ft | 409 kts | 162° |
| 2026-05-05 13:27 | 48.24453 | 2.43109 | 28208 ft | 411 kts | 159° |
| 2026-05-05 13:27 | 48.21739 | 2.44562 | 28630 ft | 413 kts | 159° |
| 2026-05-05 13:27 | 48.19025 | 2.46009 | 29046 ft | 416 kts | 158° |
| 2026-05-05 13:27 | 48.16277 | 2.47469 | 29377 ft | 420 kts | 158° |
| 2026-05-05 13:28 | 48.13509 | 2.48928 | 29744 ft | 424 kts | 158° |
| 2026-05-05 13:28 | 48.10716 | 2.50397 | 30109 ft | 427 kts | 159° |
| 2026-05-05 13:28 | 48.07910 | 2.51875 | 30519 ft | 429 kts | 159° |
| 2026-05-05 13:28 | 48.05057 | 2.53342 | 30685 ft | 438 kts | 159° |
| 2026-05-05 13:29 | 48.02141 | 2.54795 | 30801 ft | 444 kts | 160° |
| 2026-05-05 13:29 | 47.99209 | 2.56227 | 30828 ft | 443 kts | 160° |
| 2026-05-05 13:29 | 47.93355 | 2.59059 | 30833 ft | 443 kts | 161° |
| 2026-05-05 13:30 | 47.87493 | 2.61914 | 30830 ft | 444 kts | 160° |
| 2026-05-05 13:30 | 47.81624 | 2.64795 | 30830 ft | 444 kts | 160° |
| 2026-05-05 13:31 | 47.75765 | 2.67675 | 30845 ft | 444 kts | 160° |
| 2026-05-05 13:31 | 47.69904 | 2.70529 | 30842 ft | 443 kts | 160° |
| 2026-05-05 13:32 | 47.64054 | 2.73368 | 30844 ft | 442 kts | 161° |
| 2026-05-05 13:32 | 47.58207 | 2.76196 | 30836 ft | 442 kts | 161° |
| 2026-05-05 13:33 | 47.52366 | 2.79026 | 30846 ft | 442 kts | 161° |
| 2026-05-05 13:33 | 47.46525 | 2.81846 | 30850 ft | 441 kts | 161° |
| 2026-05-05 13:34 | 47.40696 | 2.84650 | 30852 ft | 440 kts | 161° |
| 2026-05-05 13:34 | 47.34874 | 2.87456 | 30872 ft | 439 kts | 161° |
| 2026-05-05 13:35 | 47.29068 | 2.90242 | 30848 ft | 438 kts | 161° |
| 2026-05-05 13:35 | 47.23286 | 2.93000 | 30856 ft | 437 kts | 162° |
| 2026-05-05 13:36 | 47.17508 | 2.95759 | 30857 ft | 435 kts | 162° |
| 2026-05-05 13:36 | 47.11752 | 2.98497 | 30857 ft | 435 kts | 162° |
| 2026-05-05 13:37 | 47.05955 | 3.01024 | 30866 ft | 434 kts | 164° |
| 2026-05-05 13:37 | 47.00159 | 3.03338 | 30858 ft | 434 kts | 165° |
| 2026-05-05 13:38 | 46.94306 | 3.05673 | 30856 ft | 434 kts | 164° |
| 2026-05-05 13:38 | 46.88480 | 3.08050 | 30856 ft | 434 kts | 164° |
| 2026-05-05 13:39 | 46.82668 | 3.10446 | 30850 ft | 434 kts | 164° |
| 2026-05-05 13:39 | 46.76848 | 3.12836 | 30850 ft | 435 kts | 164° |
| 2026-05-05 13:40 | 46.71022 | 3.15214 | 30848 ft | 434 kts | 164° |
| 2026-05-05 13:40 | 46.65239 | 3.17553 | 30850 ft | 434 kts | 164° |
| 2026-05-05 13:41 | 46.59420 | 3.19906 | 30847 ft | 434 kts | 164° |
| 2026-05-05 13:41 | 46.53602 | 3.22268 | 30846 ft | 434 kts | 164° |
| 2026-05-05 13:42 | 46.47781 | 3.24627 | 30835 ft | 434 kts | 165° |
| 2026-05-05 13:42 | 46.41955 | 3.26977 | 30842 ft | 435 kts | 165° |
| 2026-05-05 13:43 | 46.36124 | 3.29319 | 30846 ft | 435 kts | 165° |
| 2026-05-05 13:43 | 46.30286 | 3.31658 | 30849 ft | 435 kts | 165° |
| 2026-05-05 13:44 | 46.24447 | 3.33986 | 30848 ft | 436 kts | 165° |
| 2026-05-05 13:44 | 46.18594 | 3.36318 | 30848 ft | 436 kts | 165° |
| 2026-05-05 13:45 | 46.12735 | 3.38654 | 30853 ft | 437 kts | 165° |
| 2026-05-05 13:45 | 46.06924 | 3.40951 | 30853 ft | 437 kts | 166° |
| 2026-05-05 13:46 | 46.01067 | 3.43270 | 30854 ft | 437 kts | 166° |
| 2026-05-05 13:46 | 45.96154 | 3.45218 | 30862 ft | 438 kts | 166° |
| 2026-05-05 13:47 | 45.90268 | 3.47549 | 30872 ft | 437 kts | 166° |
| 2026-05-05 13:47 | 45.84399 | 3.49865 | 30869 ft | 438 kts | 166° |
| 2026-05-05 13:48 | 45.78551 | 3.52366 | 30871 ft | 438 kts | 165° |
| 2026-05-05 13:48 | 45.72723 | 3.54954 | 30867 ft | 438 kts | 165° |
| 2026-05-05 13:49 | 45.66888 | 3.57497 | 30864 ft | 438 kts | 166° |
| 2026-05-05 13:49 | 45.61048 | 3.59998 | 30866 ft | 438 kts | 166° |
| 2026-05-05 13:50 | 45.55239 | 3.62475 | 30866 ft | 438 kts | 167° |
| 2026-05-05 13:50 | 45.49397 | 3.64965 | 30861 ft | 438 kts | 167° |
| 2026-05-05 13:51 | 45.43557 | 3.67454 | 30863 ft | 438 kts | 167° |
| 2026-05-05 13:51 | 45.37724 | 3.69931 | 30866 ft | 438 kts | 167° |
| 2026-05-05 13:52 | 45.31897 | 3.72399 | 30558 ft | 434 kts | 167° |
| 2026-05-05 13:52 | 45.29081 | 3.74013 | 29745 ft | 441 kts | 158° |
| 2026-05-05 13:52 | 45.26456 | 3.76326 | 28744 ft | 448 kts | 148° |
| 2026-05-05 13:53 | 45.24112 | 3.79304 | 27672 ft | 457 kts | 137° |
| 2026-05-05 13:53 | 45.22142 | 3.82881 | 26619 ft | 465 kts | 127° |
| 2026-05-05 13:53 | 45.20412 | 3.86754 | 26187 ft | 467 kts | 127° |
| 2026-05-05 13:53 | 45.18659 | 3.90637 | 25930 ft | 469 kts | 127° |
| 2026-05-05 13:54 | 45.16891 | 3.94511 | 25678 ft | 469 kts | 127° |
| 2026-05-05 13:54 | 45.15108 | 3.98398 | 25425 ft | 470 kts | 127° |
| 2026-05-05 13:54 | 45.13323 | 4.02279 | 25171 ft | 470 kts | 127° |
| 2026-05-05 13:54 | 45.11537 | 4.06163 | 24909 ft | 469 kts | 128° |
| 2026-05-05 13:55 | 45.09764 | 4.10026 | 24672 ft | 468 kts | 128° |
| 2026-05-05 13:55 | 45.07994 | 4.13883 | 24429 ft | 466 kts | 127° |
| 2026-05-05 13:55 | 45.06231 | 4.17712 | 24185 ft | 464 kts | 128° |
| 2026-05-05 13:55 | 45.04297 | 4.21314 | 23925 ft | 457 kts | 136° |
| 2026-05-05 13:56 | 45.02056 | 4.24436 | 23686 ft | 450 kts | 144° |
| 2026-05-05 13:56 | 44.99590 | 4.27019 | 23452 ft | 444 kts | 152° |
| 2026-05-05 13:56 | 44.96944 | 4.29217 | 23184 ft | 441 kts | 154° |
| 2026-05-05 13:56 | 44.94296 | 4.31383 | 22903 ft | 439 kts | 154° |
| 2026-05-05 13:57 | 44.91656 | 4.33545 | 22640 ft | 438 kts | 154° |
| 2026-05-05 13:57 | 44.89026 | 4.35702 | 22351 ft | 436 kts | 154° |
| 2026-05-05 13:57 | 44.86408 | 4.37851 | 22081 ft | 434 kts | 154° |
| 2026-05-05 13:57 | 44.83802 | 4.39986 | 21861 ft | 433 kts | 154° |
| 2026-05-05 13:58 | 44.81205 | 4.42109 | 21818 ft | 433 kts | 154° |
| 2026-05-05 13:58 | 44.78598 | 4.44237 | 21546 ft | 431 kts | 154° |
| 2026-05-05 13:58 | 44.76005 | 4.46352 | 21285 ft | 430 kts | 154° |
| 2026-05-05 13:58 | 44.73420 | 4.48456 | 21021 ft | 428 kts | 154° |
| 2026-05-05 13:59 | 44.68257 | 4.52575 | 20508 ft | 424 kts | 157° |
| 2026-05-05 13:59 | 44.65542 | 4.54095 | 20255 ft | 418 kts | 166° |
| 2026-05-05 14:00 | 44.59917 | 4.55928 | 19757 ft | 414 kts | 170° |
| 2026-05-05 14:00 | 44.57115 | 4.56804 | 19504 ft | 412 kts | 170° |
| 2026-05-05 14:00 | 44.54317 | 4.57683 | 19254 ft | 411 kts | 171° |
| 2026-05-05 14:00 | 44.51573 | 4.58546 | 18819 ft | 408 kts | 171° |
| 2026-05-05 14:01 | 44.48781 | 4.59424 | 18265 ft | 404 kts | 170° |
| 2026-05-05 14:01 | 44.46089 | 4.60267 | 17674 ft | 401 kts | 170° |
| 2026-05-05 14:01 | 44.43337 | 4.61122 | 17134 ft | 398 kts | 170° |
| 2026-05-05 14:01 | 44.40642 | 4.61956 | 16598 ft | 395 kts | 170° |
| 2026-05-05 14:02 | 44.38007 | 4.62772 | 16073 ft | 393 kts | 170° |
| 2026-05-05 14:02 | 44.35339 | 4.63599 | 15542 ft | 391 kts | 170° |
| 2026-05-05 14:02 | 44.32693 | 4.64418 | 15016 ft | 388 kts | 170° |
| 2026-05-05 14:02 | 44.30052 | 4.65069 | 14493 ft | 383 kts | 176° |
| 2026-05-05 14:03 | 44.27411 | 4.65448 | 13980 ft | 380 kts | 176° |
| 2026-05-05 14:03 | 44.24792 | 4.65827 | 13440 ft | 378 kts | 176° |
| 2026-05-05 14:03 | 44.22215 | 4.66202 | 12924 ft | 376 kts | 176° |
| 2026-05-05 14:03 | 44.19584 | 4.66586 | 12409 ft | 374 kts | 176° |
| 2026-05-05 14:04 | 44.17001 | 4.66962 | 11908 ft | 372 kts | 176° |
| 2026-05-05 14:04 | 44.14427 | 4.67334 | 11404 ft | 371 kts | 176° |
| 2026-05-05 14:04 | 44.11906 | 4.67887 | 11012 ft | 363 kts | 167° |
| 2026-05-05 14:04 | 44.09574 | 4.69031 | 10901 ft | 347 kts | 160° |
| 2026-05-05 14:05 | 44.07391 | 4.70268 | 10784 ft | 333 kts | 160° |
| 2026-05-05 14:05 | 44.05280 | 4.71453 | 10647 ft | 321 kts | 160° |
| 2026-05-05 14:05 | 44.03252 | 4.72582 | 10528 ft | 306 kts | 160° |
| 2026-05-05 14:05 | 44.01325 | 4.73658 | 10377 ft | 291 kts | 160° |
| 2026-05-05 14:06 | 43.99476 | 4.74689 | 10058 ft | 283 kts | 160° |
| 2026-05-05 14:06 | 43.97665 | 4.75699 | 9845 ft | 280 kts | 160° |
| 2026-05-05 14:06 | 43.95859 | 4.76706 | 9709 ft | 279 kts | 160° |
| 2026-05-05 14:06 | 43.94059 | 4.77712 | 9581 ft | 279 kts | 160° |
| 2026-05-05 14:07 | 43.92260 | 4.78720 | 9439 ft | 278 kts | 160° |
| 2026-05-05 14:07 | 43.90474 | 4.79725 | 9303 ft | 277 kts | 160° |
| 2026-05-05 14:07 | 43.88693 | 4.80729 | 9096 ft | 276 kts | 160° |
| 2026-05-05 14:07 | 43.86919 | 4.81728 | 8807 ft | 275 kts | 160° |
| 2026-05-05 14:08 | 43.85152 | 4.82716 | 8504 ft | 273 kts | 160° |
| 2026-05-05 14:08 | 43.83392 | 4.83699 | 8210 ft | 272 kts | 160° |
| 2026-05-05 14:08 | 43.81642 | 4.84673 | 7913 ft | 269 kts | 160° |
| 2026-05-05 14:08 | 43.79929 | 4.85627 | 7624 ft | 263 kts | 160° |
| 2026-05-05 14:09 | 43.78255 | 4.86565 | 7341 ft | 257 kts | 160° |
| 2026-05-05 14:09 | 43.76614 | 4.87490 | 7064 ft | 252 kts | 160° |
| 2026-05-05 14:09 | 43.75010 | 4.88392 | 6780 ft | 246 kts | 160° |
| 2026-05-05 14:09 | 43.73445 | 4.89271 | 6541 ft | 240 kts | 160° |
| 2026-05-05 14:10 | 43.71905 | 4.90136 | 6261 ft | 237 kts | 161° |
| 2026-05-05 14:10 | 43.70388 | 4.90990 | 5992 ft | 234 kts | 161° |
| 2026-05-05 14:10 | 43.68898 | 4.91839 | 5730 ft | 229 kts | 161° |
| 2026-05-05 14:10 | 43.67439 | 4.92670 | 5489 ft | 225 kts | 161° |
| 2026-05-05 14:11 | 43.66015 | 4.93482 | 5291 ft | 218 kts | 161° |
| 2026-05-05 14:11 | 43.64662 | 4.94256 | 5072 ft | 209 kts | 161° |
| 2026-05-05 14:11 | 43.63344 | 4.95010 | 4863 ft | 202 kts | 160° |
| 2026-05-05 14:11 | 43.62062 | 4.95752 | 4626 ft | 197 kts | 158° |
| 2026-05-05 14:12 | 43.60963 | 4.96866 | 4412 ft | 197 kts | 138° |
| 2026-05-05 14:12 | 43.60014 | 4.98173 | 4243 ft | 188 kts | 138° |
| 2026-05-05 14:12 | 43.59113 | 4.99434 | 4025 ft | 181 kts | 139° |
| 2026-05-05 14:12 | 43.58251 | 5.00661 | 3807 ft | 176 kts | 138° |
| 2026-05-05 14:13 | 43.57415 | 5.01867 | 3578 ft | 173 kts | 136° |
| 2026-05-05 14:13 | 43.56593 | 5.03080 | 3335 ft | 172 kts | 137° |
| 2026-05-05 14:13 | 43.55774 | 5.04292 | 3074 ft | 173 kts | 139° |
| 2026-05-05 14:13 | 43.54942 | 5.05494 | 2824 ft | 173 kts | 138° |
| 2026-05-05 14:14 | 43.54119 | 5.06673 | 2619 ft | 169 kts | 138° |
| 2026-05-05 14:14 | 43.53349 | 5.07839 | 2393 ft | 160 kts | 138° |
| 2026-05-05 14:14 | 43.52606 | 5.08921 | 2197 ft | 150 kts | 139° |
| 2026-05-05 14:14 | 43.51894 | 5.09914 | 2010 ft | 142 kts | 141° |
| 2026-05-05 14:15 | 43.51215 | 5.10840 | 1829 ft | 134 kts | 139° |
| 2026-05-05 14:15 | 43.50552 | 5.11720 | 1634 ft | 130 kts | 141° |
| 2026-05-05 14:15 | 43.49914 | 5.12607 | 1470 ft | 130 kts | 136° |
| 2026-05-05 14:15 | 43.49297 | 5.13519 | 1303 ft | 130 kts | 137° |
| 2026-05-05 14:16 | 43.48664 | 5.14406 | 1114 ft | 129 kts | 139° |
| 2026-05-05 14:16 | 43.48046 | 5.15283 | 1002 ft | 127 kts | 139° |
| 2026-05-05 14:16 | 43.47444 | 5.16178 | 797 ft | 127 kts | 139° |
| 2026-05-05 14:16 | 43.46825 | 5.17045 | 584 ft | 127 kts | 140° |
| 2026-05-05 14:17 | 43.46209 | 5.17911 | 443 ft | 126 kts | 139° |
| 2026-05-05 14:17 | 43.45606 | 5.18781 | 310 ft | 125 kts | 141° |
| 2026-05-05 14:17 | 43.44989 | 5.19630 | 140 ft | 127 kts | 140° |
| 2026-05-05 14:17 | 43.44395 | 5.20473 | 22 ft | 111 kts | 135° |
| 2026-05-05 14:18 | 43.43959 | 5.21091 | 27 ft | 68 kts | 134° |
| 2026-05-05 14:18 | 43.43679 | 5.21491 | 39 ft | 52 kts | 134° |
| 2026-05-05 14:18 | 43.43447 | 5.21818 | 46 ft | 44 kts | 134° |
| 2026-05-05 14:18 | 43.43333 | 5.22110 | 52 ft | 30 kts | 92° |
| 2026-05-05 14:19 | 43.43339 | 5.22221 | 54 ft | 0 kts | 72° |
| 2026-05-05 14:20 | 43.43339 | 5.22222 | 54 ft | 0 kts | 72° |
| 2026-05-05 14:20 | 43.43345 | 5.22240 | 52 ft | 4 kts | 66° |
| 2026-05-05 14:20 | 43.43381 | 5.22279 | 54 ft | 9 kts | 17° |
| 2026-05-05 14:20 | 43.43463 | 5.22248 | 52 ft | 16 kts | 329° |
| 2026-05-05 14:21 | 43.43579 | 5.22154 | 48 ft | 20 kts | 329° |
| 2026-05-05 14:21 | 43.43676 | 5.22114 | 46 ft | 13 kts | 24° |
| 2026-05-05 14:21 | 43.43737 | 5.22210 | 46 ft | 13 kts | 62° |
| 2026-05-05 14:21 | 43.43733 | 5.22326 | 48 ft | 12 kts | 81° |
| 2026-05-05 14:22 | 43.43754 | 5.22434 | 49 ft | 12 kts | 73° |
| 2026-05-05 14:22 | 43.43789 | 5.22529 | 49 ft | 11 kts | 39° |
| 2026-05-05 14:22 | 43.43864 | 5.22557 | 48 ft | 10 kts | 348° |
| 2026-05-05 14:22 | 43.43883 | 5.22493 | 47 ft | 9 kts | 267° |
| 2026-05-05 14:23 | 43.43882 | 5.22465 | 47 ft | 0 kts | 266° |